createdAt,value
2018-06-09T00:01:37.110Z,1005.87
2018-06-09T00:11:37.065Z,1005.92
2018-06-09T00:21:37.025Z,1005.94
2018-06-09T00:31:37.077Z,1005.83
2018-06-09T00:41:37.059Z,1005.84
2018-06-09T00:51:37.012Z,1005.78
2018-06-09T01:01:37.080Z,1005.73
2018-06-09T01:11:37.035Z,1005.84
2018-06-09T01:21:37.096Z,1005.84
2018-06-09T01:31:37.045Z,1005.93
2018-06-09T01:41:37.113Z,1005.76
2018-06-09T01:51:37.072Z,1005.79
2018-06-09T02:01:37.042Z,1005.82
2018-06-09T02:11:37.099Z,1005.8
2018-06-09T02:21:37.069Z,1005.82
2018-06-09T02:31:37.016Z,1005.77
2018-06-09T02:41:37.089Z,1005.72
2018-06-09T02:51:37.041Z,1005.67
2018-06-09T03:01:37.117Z,1005.63
2018-06-09T03:11:37.067Z,1005.86
2018-06-09T03:21:37.046Z,1005.84
2018-06-09T03:31:37.114Z,1005.84
2018-06-09T03:41:37.054Z,1005.83
2018-06-09T03:51:37.008Z,1005.82
2018-06-09T04:01:37.086Z,1005.86
2018-06-09T04:11:37.047Z,1005.9
2018-06-09T04:21:37.107Z,1005.87
2018-06-09T04:31:37.011Z,1005.89
2018-06-09T04:41:37.025Z,1005.85
2018-06-09T04:51:37.099Z,1005.83
2018-06-09T05:01:37.049Z,1005.83
2018-06-09T05:11:37.120Z,1005.7
2018-06-09T05:21:37.082Z,1005.7
2018-06-09T05:31:37.033Z,1005.66
2018-06-09T05:41:37.126Z,1005.73
2018-06-09T05:51:37.077Z,1005.69
2018-06-09T06:01:37.018Z,1005.72
2018-06-09T06:11:37.099Z,1006.04
2018-06-09T06:21:37.044Z,1006.1
2018-06-09T06:31:37.115Z,1006.09
2018-06-09T06:41:37.089Z,1006.09
2018-06-09T06:51:37.137Z,1006
2018-06-09T07:01:37.101Z,1006.03
2018-06-09T07:11:37.064Z,1006.14
2018-06-09T07:21:37.116Z,1006.44
2018-06-09T07:31:37.072Z,1006.21
2018-06-09T07:41:37.053Z,1006.25
2018-06-09T07:51:37.107Z,1006.1
2018-06-09T08:01:37.056Z,1006.06
2018-06-09T08:11:37.130Z,1006.13
2018-06-09T08:21:37.109Z,1006.44
2018-06-09T08:31:37.152Z,1006.27
2018-06-09T08:41:37.133Z,1006.07
2018-06-09T08:51:37.074Z,1006.11
2018-06-09T09:01:37.125Z,1006.15
2018-06-09T09:11:37.088Z,1006.11
2018-06-09T09:21:37.180Z,1006.07
2018-06-09T09:31:37.128Z,1006.08
2018-06-09T09:41:37.086Z,1006.19
2018-06-09T09:51:37.156Z,1006.07
2018-06-09T10:01:37.117Z,1006.05
2018-06-09T10:11:37.164Z,1006.06
2018-06-09T10:21:37.129Z,1006.02
2018-06-09T10:31:37.248Z,1006.03
2018-06-09T10:41:37.157Z,1006.01
2018-06-09T10:51:37.130Z,1005.95
2018-06-09T11:01:37.185Z,1005.82
2018-06-09T11:11:37.132Z,1005.78
2018-06-09T11:21:37.211Z,1005.68
2018-06-09T11:31:37.169Z,1005.68
2018-06-09T11:41:37.254Z,1005.55
2018-06-09T11:51:37.201Z,1005.5
2018-06-09T12:01:37.152Z,1005.31
2018-06-09T12:11:37.220Z,1005.35
2018-06-09T12:21:37.184Z,1005.32
2018-06-09T12:31:37.138Z,1005.25
2018-06-09T12:41:37.208Z,1005.15
2018-06-09T12:51:37.165Z,1005.03
2018-06-09T13:01:37.233Z,1004.92
2018-06-09T13:11:37.210Z,1004.99
2018-06-09T13:21:37.246Z,1004.84
2018-06-09T13:31:37.210Z,1004.67
2018-06-09T13:41:37.156Z,1004.48
2018-06-09T13:51:37.212Z,1004.45
2018-06-09T14:01:37.189Z,1004.36
2018-06-09T14:11:37.246Z,1004.32
2018-06-09T14:21:37.233Z,1004.26
2018-06-09T14:31:37.234Z,1004.25
2018-06-09T14:41:37.193Z,1004.12
2018-06-09T14:51:37.290Z,1004.14
2018-06-09T15:01:38.234Z,1004.23
2018-06-09T15:11:37.174Z,1004.27
2018-06-09T15:21:37.264Z,1004.22
2018-06-09T15:31:37.209Z,1004.25
2018-06-09T15:41:37.273Z,1004.17
2018-06-09T15:51:37.258Z,1004.1
2018-06-09T16:01:37.208Z,1004.04
2018-06-09T16:11:37.261Z,1003.97
2018-06-09T16:21:37.248Z,1003.97
2018-06-09T16:31:37.263Z,1003.94
2018-06-09T16:41:37.230Z,1003.93
2018-06-09T16:51:37.293Z,1003.92
2018-06-09T17:01:37.283Z,1003.84
2018-06-09T17:11:37.235Z,1003.9
2018-06-09T17:21:37.290Z,1003.91
2018-06-09T17:31:37.257Z,1004.01
2018-06-09T17:41:37.305Z,1003.98
2018-06-09T17:51:37.281Z,1004.08
2018-06-09T18:01:37.226Z,1004.07
2018-06-09T18:11:37.340Z,1004.01
2018-06-09T18:21:37.261Z,1003.97
2018-06-09T18:31:37.306Z,1003.95
2018-06-09T18:41:37.280Z,1004.13
2018-06-09T18:51:37.240Z,1004.42
2018-06-09T19:01:37.322Z,1004.52
2018-06-09T19:11:38.278Z,1004.59
2018-06-09T19:21:37.328Z,1004.48
2018-06-09T19:31:37.276Z,1004.48
2018-06-09T19:41:37.345Z,1004.66
2018-06-09T19:51:37.326Z,1004.8
2018-06-09T20:01:37.269Z,1005.18
2018-06-09T20:11:37.313Z,1005.29
2018-06-09T20:21:37.294Z,1005.71
2018-06-09T20:31:39.311Z,1005.93
2018-06-09T20:41:37.322Z,1005.18
2018-06-09T20:51:37.266Z,1004.87
2018-06-09T21:01:37.349Z,1004.97
2018-06-09T21:11:37.311Z,1005
2018-06-09T21:21:37.349Z,1004.71
2018-06-09T21:31:37.320Z,1004.45
2018-06-09T21:41:37.267Z,1004.56
2018-06-09T21:51:37.369Z,1004.49
2018-06-09T22:01:37.308Z,1004.51
2018-06-09T22:11:37.278Z,1004.43
2018-06-09T22:21:37.324Z,1004.17
2018-06-09T22:31:37.275Z,1004.34
2018-06-09T22:41:37.350Z,1004.4
2018-06-09T22:51:37.312Z,1004.49
2018-06-09T23:01:37.380Z,1004.54
2018-06-09T23:11:37.335Z,1004.72
2018-06-09T23:21:37.308Z,1004.69
2018-06-09T23:31:37.352Z,1004.68
2018-06-09T23:41:37.346Z,1004.73
2018-06-09T23:51:37.289Z,1004.87
